sensor_id;sensor_type;location;lat;lon;timestamp;P1;durP1;ratioP1;P2;durP2;ratioP2
11537;SDS011;50159;49.426;11.182;2023-12-29T00:02:12;3.53;;;3.13;;
11537;SDS011;50159;49.426;11.182;2023-12-29T00:04:39;4.13;;;3.10;;
11537;SDS011;50159;49.426;11.182;2023-12-29T00:07:06;3.50;;;3.30;;
11537;SDS011;50159;49.426;11.182;2023-12-29T00:09:33;5.27;;;3.50;;
11537;SDS011;50159;49.426;11.182;2023-12-29T00:12:07;3.60;;;3.30;;
11537;SDS011;50159;49.426;11.182;2023-12-29T00:14:36;3.47;;;3.27;;
11537;SDS011;50159;49.426;11.182;2023-12-29T00:17:05;3.17;;;2.97;;
11537;SDS011;50159;49.426;11.182;2023-12-29T00:19:32;3.07;;;2.90;;
11537;SDS011;50159;49.426;11.182;2023-12-29T00:21:59;3.20;;;2.90;;
11537;SDS011;50159;49.426;11.182;2023-12-29T00:24:29;3.27;;;3.00;;
11537;SDS011;50159;49.426;11.182;2023-12-29T00:26:59;3.20;;;3.00;;
11537;SDS011;50159;49.426;11.182;2023-12-29T00:29:26;3.53;;;3.03;;
11537;SDS011;50159;49.426;11.182;2023-12-29T00:31:58;3.17;;;2.97;;
11537;SDS011;50159;49.426;11.182;2023-12-29T00:34:27;2.70;;;2.60;;
11537;SDS011;50159;49.426;11.182;2023-12-29T00:36:54;2.87;;;2.70;;
11537;SDS011;50159;49.426;11.182;2023-12-29T00:39:21;2.67;;;2.57;;
11537;SDS011;50159;49.426;11.182;2023-12-29T00:41:55;2.70;;;2.57;;
11537;SDS011;50159;49.426;11.182;2023-12-29T00:44:23;2.37;;;2.27;;
11537;SDS011;50159;49.426;11.182;2023-12-29T00:46:50;3.07;;;2.83;;
11537;SDS011;50159;49.426;11.182;2023-12-29T00:49:17;2.83;;;2.73;;
11537;SDS011;50159;49.426;11.182;2023-12-29T00:51:44;2.87;;;2.77;;
11537;SDS011;50159;49.426;11.182;2023-12-29T00:54:11;2.80;;;2.70;;
11537;SDS011;50159;49.426;11.182;2023-12-29T00:56:38;3.33;;;3.13;;
11537;SDS011;50159;49.426;11.182;2023-12-29T00:59:04;3.17;;;3.00;;
11537;SDS011;50159;49.426;11.182;2023-12-29T01:01:34;3.93;;;3.03;;
11537;SDS011;50159;49.426;11.182;2023-12-29T01:04:02;3.97;;;3.03;;
11537;SDS011;50159;49.426;11.182;2023-12-29T01:06:30;3.07;;;2.87;;
11537;SDS011;50159;49.426;11.182;2023-12-29T01:08:56;2.73;;;2.63;;
11537;SDS011;50159;49.426;11.182;2023-12-29T01:11:23;3.30;;;3.10;;
11537;SDS011;50159;49.426;11.182;2023-12-29T01:13:50;2.53;;;2.37;;
11537;SDS011;50159;49.426;11.182;2023-12-29T01:16:17;3.00;;;2.80;;
11537;SDS011;50159;49.426;11.182;2023-12-29T01:18:44;2.97;;;2.77;;
11537;SDS011;50159;49.426;11.182;2023-12-29T01:21:11;3.07;;;2.73;;
11537;SDS011;50159;49.426;11.182;2023-12-29T01:23:38;3.03;;;2.73;;
11537;SDS011;50159;49.426;11.182;2023-12-29T01:26:05;2.77;;;2.60;;
11537;SDS011;50159;49.426;11.182;2023-12-29T01:28:31;2.73;;;2.63;;
11537;SDS011;50159;49.426;11.182;2023-12-29T01:30:58;2.73;;;2.63;;
11537;SDS011;50159;49.426;11.182;2023-12-29T01:33:25;3.07;;;2.77;;
11537;SDS011;50159;49.426;11.182;2023-12-29T01:35:52;3.90;;;2.60;;
11537;SDS011;50159;49.426;11.182;2023-12-29T01:38:19;3.07;;;2.90;;
11537;SDS011;50159;49.426;11.182;2023-12-29T01:40:46;2.70;;;2.60;;
11537;SDS011;50159;49.426;11.182;2023-12-29T01:43:13;5.60;;;2.87;;
11537;SDS011;50159;49.426;11.182;2023-12-29T01:45:40;3.73;;;2.60;;
11537;SDS011;50159;49.426;11.182;2023-12-29T01:48:21;3.17;;;3.00;;
11537;SDS011;50159;49.426;11.182;2023-12-29T01:50:50;3.00;;;2.87;;
11537;SDS011;50159;49.426;11.182;2023-12-29T01:53:19;3.17;;;2.90;;
11537;SDS011;50159;49.426;11.182;2023-12-29T01:55:59;3.10;;;2.90;;
11537;SDS011;50159;49.426;11.182;2023-12-29T01:58:27;3.33;;;3.03;;
11537;SDS011;50159;49.426;11.182;2023-12-29T02:00:54;3.33;;;3.13;;
11537;SDS011;50159;49.426;11.182;2023-12-29T02:03:21;3.90;;;3.00;;
11537;SDS011;50159;49.426;11.182;2023-12-29T02:05:48;2.70;;;2.50;;
11537;SDS011;50159;49.426;11.182;2023-12-29T02:08:16;4.20;;;2.97;;
11537;SDS011;50159;49.426;11.182;2023-12-29T02:10:43;3.13;;;3.00;;
11537;SDS011;50159;49.426;11.182;2023-12-29T02:13:11;3.20;;;3.00;;
11537;SDS011;50159;49.426;11.182;2023-12-29T02:15:38;3.27;;;2.97;;
11537;SDS011;50159;49.426;11.182;2023-12-29T02:18:06;3.30;;;3.10;;
11537;SDS011;50159;49.426;11.182;2023-12-29T02:20:38;3.70;;;3.30;;
11537;SDS011;50159;49.426;11.182;2023-12-29T02:23:05;4.13;;;3.70;;
11537;SDS011;50159;49.426;11.182;2023-12-29T02:25:32;3.13;;;3.03;;
11537;SDS011;50159;49.426;11.182;2023-12-29T02:28:02;3.70;;;3.50;;
11537;SDS011;50159;49.426;11.182;2023-12-29T02:30:48;3.60;;;3.10;;
11537;SDS011;50159;49.426;11.182;2023-12-29T02:33:24;3.17;;;3.03;;
11537;SDS011;50159;49.426;11.182;2023-12-29T02:35:55;3.23;;;3.03;;
11537;SDS011;50159;49.426;11.182;2023-12-29T02:38:25;4.40;;;4.10;;
11537;SDS011;50159;49.426;11.182;2023-12-29T02:40:57;4.17;;;3.73;;
11537;SDS011;50159;49.426;11.182;2023-12-29T02:43:25;3.67;;;3.40;;
11537;SDS011;50159;49.426;11.182;2023-12-29T02:45:52;4.17;;;3.87;;
11537;SDS011;50159;49.426;11.182;2023-12-29T02:48:19;4.00;;;3.70;;
11537;SDS011;50159;49.426;11.182;2023-12-29T02:50:46;4.27;;;3.90;;
11537;SDS011;50159;49.426;11.182;2023-12-29T02:53:12;3.80;;;3.50;;
11537;SDS011;50159;49.426;11.182;2023-12-29T02:55:39;3.83;;;3.43;;
11537;SDS011;50159;49.426;11.182;2023-12-29T02:58:06;4.10;;;3.70;;
11537;SDS011;50159;49.426;11.182;2023-12-29T03:00:33;5.53;;;4.20;;
11537;SDS011;50159;49.426;11.182;2023-12-29T03:03:00;4.07;;;3.73;;
11537;SDS011;50159;49.426;11.182;2023-12-29T03:05:27;5.03;;;3.23;;
11537;SDS011;50159;49.426;11.182;2023-12-29T03:07:54;4.23;;;3.93;;
11537;SDS011;50159;49.426;11.182;2023-12-29T03:10:20;4.33;;;3.63;;
11537;SDS011;50159;49.426;11.182;2023-12-29T03:12:47;3.83;;;3.53;;
11537;SDS011;50159;49.426;11.182;2023-12-29T03:15:14;4.00;;;3.70;;
11537;SDS011;50159;49.426;11.182;2023-12-29T03:17:41;4.30;;;4.00;;
11537;SDS011;50159;49.426;11.182;2023-12-29T03:20:09;3.77;;;3.57;;
11537;SDS011;50159;49.426;11.182;2023-12-29T03:22:37;3.70;;;3.50;;
11537;SDS011;50159;49.426;11.182;2023-12-29T03:25:04;3.73;;;3.43;;
11537;SDS011;50159;49.426;11.182;2023-12-29T03:27:31;3.97;;;3.67;;
11537;SDS011;50159;49.426;11.182;2023-12-29T03:29:58;4.93;;;3.87;;
11537;SDS011;50159;49.426;11.182;2023-12-29T03:32:25;4.17;;;3.80;;
11537;SDS011;50159;49.426;11.182;2023-12-29T03:34:52;3.83;;;3.63;;
11537;SDS011;50159;49.426;11.182;2023-12-29T03:37:19;4.03;;;3.73;;
11537;SDS011;50159;49.426;11.182;2023-12-29T03:39:46;3.97;;;3.63;;
11537;SDS011;50159;49.426;11.182;2023-12-29T03:42:13;4.00;;;3.80;;
11537;SDS011;50159;49.426;11.182;2023-12-29T03:44:39;4.27;;;3.60;;
11537;SDS011;50159;49.426;11.182;2023-12-29T03:47:06;5.23;;;4.17;;
11537;SDS011;50159;49.426;11.182;2023-12-29T03:49:34;4.60;;;4.20;;
11537;SDS011;50159;49.426;11.182;2023-12-29T03:52:01;4.83;;;4.00;;
11537;SDS011;50159;49.426;11.182;2023-12-29T03:54:27;4.73;;;4.33;;
11537;SDS011;50159;49.426;11.182;2023-12-29T03:56:54;5.50;;;3.47;;
11537;SDS011;50159;49.426;11.182;2023-12-29T03:59:21;4.10;;;3.70;;
11537;SDS011;50159;49.426;11.182;2023-12-29T04:01:48;3.53;;;3.33;;
11537;SDS011;50159;49.426;11.182;2023-12-29T04:04:15;4.33;;;4.03;;
11537;SDS011;50159;49.426;11.182;2023-12-29T04:06:42;4.03;;;3.80;;
11537;SDS011;50159;49.426;11.182;2023-12-29T04:09:09;3.97;;;3.77;;
11537;SDS011;50159;49.426;11.182;2023-12-29T04:11:36;3.70;;;3.50;;
11537;SDS011;50159;49.426;11.182;2023-12-29T04:14:03;4.60;;;4.30;;
11537;SDS011;50159;49.426;11.182;2023-12-29T04:16:30;5.40;;;4.30;;
11537;SDS011;50159;49.426;11.182;2023-12-29T04:18:57;4.07;;;3.80;;
11537;SDS011;50159;49.426;11.182;2023-12-29T04:21:24;4.10;;;3.80;;
11537;SDS011;50159;49.426;11.182;2023-12-29T04:23:50;5.93;;;3.93;;
11537;SDS011;50159;49.426;11.182;2023-12-29T04:26:17;3.80;;;3.60;;
11537;SDS011;50159;49.426;11.182;2023-12-29T04:28:44;4.50;;;3.87;;
11537;SDS011;50159;49.426;11.182;2023-12-29T04:31:11;4.93;;;4.53;;
11537;SDS011;50159;49.426;11.182;2023-12-29T04:33:38;4.13;;;3.87;;
11537;SDS011;50159;49.426;11.182;2023-12-29T04:36:05;4.43;;;4.13;;
11537;SDS011;50159;49.426;11.182;2023-12-29T04:38:32;4.17;;;3.87;;
11537;SDS011;50159;49.426;11.182;2023-12-29T04:40:59;4.60;;;4.20;;
11537;SDS011;50159;49.426;11.182;2023-12-29T04:43:26;4.20;;;3.90;;
11537;SDS011;50159;49.426;11.182;2023-12-29T04:45:53;4.30;;;4.10;;
11537;SDS011;50159;49.426;11.182;2023-12-29T04:48:20;3.80;;;3.60;;
11537;SDS011;50159;49.426;11.182;2023-12-29T04:50:47;3.50;;;3.40;;
11537;SDS011;50159;49.426;11.182;2023-12-29T04:53:14;3.57;;;3.43;;
11537;SDS011;50159;49.426;11.182;2023-12-29T04:55:40;3.80;;;3.53;;
11537;SDS011;50159;49.426;11.182;2023-12-29T04:58:07;4.47;;;4.13;;
11537;SDS011;50159;49.426;11.182;2023-12-29T05:00:34;4.33;;;3.93;;
11537;SDS011;50159;49.426;11.182;2023-12-29T05:03:01;4.10;;;3.80;;
11537;SDS011;50159;49.426;11.182;2023-12-29T05:05:28;4.10;;;3.80;;
11537;SDS011;50159;49.426;11.182;2023-12-29T05:07:55;5.20;;;4.80;;
11537;SDS011;50159;49.426;11.182;2023-12-29T05:10:21;4.67;;;4.27;;
11537;SDS011;50159;49.426;11.182;2023-12-29T05:12:48;3.60;;;3.40;;
11537;SDS011;50159;49.426;11.182;2023-12-29T05:15:15;4.50;;;4.10;;
11537;SDS011;50159;49.426;11.182;2023-12-29T05:17:42;4.43;;;4.13;;
11537;SDS011;50159;49.426;11.182;2023-12-29T05:20:09;4.10;;;3.87;;
11537;SDS011;50159;49.426;11.182;2023-12-29T05:22:36;4.07;;;3.87;;
11537;SDS011;50159;49.426;11.182;2023-12-29T05:25:04;4.40;;;4.10;;
11537;SDS011;50159;49.426;11.182;2023-12-29T05:27:31;3.63;;;3.43;;
11537;SDS011;50159;49.426;11.182;2023-12-29T05:30:01;4.87;;;4.17;;
11537;SDS011;50159;49.426;11.182;2023-12-29T05:32:28;3.73;;;3.43;;
11537;SDS011;50159;49.426;11.182;2023-12-29T05:34:55;4.10;;;3.90;;
11537;SDS011;50159;49.426;11.182;2023-12-29T05:37:22;3.70;;;3.50;;
11537;SDS011;50159;49.426;11.182;2023-12-29T05:39:49;4.00;;;3.70;;
11537;SDS011;50159;49.426;11.182;2023-12-29T05:42:15;5.03;;;4.17;;
11537;SDS011;50159;49.426;11.182;2023-12-29T05:44:42;4.40;;;4.00;;
11537;SDS011;50159;49.426;11.182;2023-12-29T05:47:09;3.80;;;3.60;;
11537;SDS011;50159;49.426;11.182;2023-12-29T05:49:38;3.87;;;3.67;;
11537;SDS011;50159;49.426;11.182;2023-12-29T05:52:06;3.97;;;3.73;;
11537;SDS011;50159;49.426;11.182;2023-12-29T05:54:33;4.10;;;3.80;;
11537;SDS011;50159;49.426;11.182;2023-12-29T05:57:01;4.37;;;4.07;;
11537;SDS011;50159;49.426;11.182;2023-12-29T05:59:28;5.30;;;4.77;;
11537;SDS011;50159;49.426;11.182;2023-12-29T06:01:55;4.50;;;4.10;;
11537;SDS011;50159;49.426;11.182;2023-12-29T06:04:22;4.97;;;4.57;;
11537;SDS011;50159;49.426;11.182;2023-12-29T06:06:49;4.37;;;4.07;;
11537;SDS011;50159;49.426;11.182;2023-12-29T06:09:16;5.00;;;4.60;;
11537;SDS011;50159;49.426;11.182;2023-12-29T06:11:44;5.33;;;4.40;;
11537;SDS011;50159;49.426;11.182;2023-12-29T06:14:11;4.60;;;4.30;;
11537;SDS011;50159;49.426;11.182;2023-12-29T06:16:38;4.80;;;4.50;;
11537;SDS011;50159;49.426;11.182;2023-12-29T06:19:05;5.50;;;4.17;;
11537;SDS011;50159;49.426;11.182;2023-12-29T06:21:32;6.13;;;4.83;;
11537;SDS011;50159;49.426;11.182;2023-12-29T06:23:59;4.93;;;4.60;;
11537;SDS011;50159;49.426;11.182;2023-12-29T06:26:25;5.53;;;5.13;;
11537;SDS011;50159;49.426;11.182;2023-12-29T06:28:52;4.40;;;4.00;;
11537;SDS011;50159;49.426;11.182;2023-12-29T06:31:19;4.80;;;4.40;;
11537;SDS011;50159;49.426;11.182;2023-12-29T06:33:47;5.33;;;4.80;;
11537;SDS011;50159;49.426;11.182;2023-12-29T06:36:14;5.27;;;4.83;;
11537;SDS011;50159;49.426;11.182;2023-12-29T06:38:41;8.10;;;4.60;;
11537;SDS011;50159;49.426;11.182;2023-12-29T06:41:08;4.30;;;4.10;;
11537;SDS011;50159;49.426;11.182;2023-12-29T06:43:35;5.13;;;4.57;;
11537;SDS011;50159;49.426;11.182;2023-12-29T06:46:02;5.37;;;4.87;;
11537;SDS011;50159;49.426;11.182;2023-12-29T06:48:30;5.73;;;4.57;;
11537;SDS011;50159;49.426;11.182;2023-12-29T06:50:57;5.37;;;4.87;;
11537;SDS011;50159;49.426;11.182;2023-12-29T06:53:23;4.80;;;4.40;;
11537;SDS011;50159;49.426;11.182;2023-12-29T06:55:50;4.90;;;4.60;;
11537;SDS011;50159;49.426;11.182;2023-12-29T06:58:17;5.83;;;4.27;;
11537;SDS011;50159;49.426;11.182;2023-12-29T07:00:44;5.10;;;4.70;;
11537;SDS011;50159;49.426;11.182;2023-12-29T07:03:14;5.20;;;4.83;;
11537;SDS011;50159;49.426;11.182;2023-12-29T07:05:41;4.60;;;4.20;;
11537;SDS011;50159;49.426;11.182;2023-12-29T07:08:08;4.40;;;4.13;;
11537;SDS011;50159;49.426;11.182;2023-12-29T07:10:39;5.83;;;4.70;;
11537;SDS011;50159;49.426;11.182;2023-12-29T07:13:06;4.83;;;4.33;;
11537;SDS011;50159;49.426;11.182;2023-12-29T07:15:32;4.13;;;3.83;;
11537;SDS011;50159;49.426;11.182;2023-12-29T07:17:59;8.23;;;4.67;;
11537;SDS011;50159;49.426;11.182;2023-12-29T07:20:27;7.47;;;3.73;;
11537;SDS011;50159;49.426;11.182;2023-12-29T07:22:54;4.53;;;4.13;;
11537;SDS011;50159;49.426;11.182;2023-12-29T07:25:21;3.80;;;3.60;;
11537;SDS011;50159;49.426;11.182;2023-12-29T07:27:48;3.67;;;3.47;;
11537;SDS011;50159;49.426;11.182;2023-12-29T07:30:15;3.77;;;3.47;;
11537;SDS011;50159;49.426;11.182;2023-12-29T07:32:42;3.80;;;3.50;;
11537;SDS011;50159;49.426;11.182;2023-12-29T07:35:09;4.50;;;4.10;;
11537;SDS011;50159;49.426;11.182;2023-12-29T07:37:36;3.80;;;3.50;;
11537;SDS011;50159;49.426;11.182;2023-12-29T07:40:03;3.93;;;3.73;;
11537;SDS011;50159;49.426;11.182;2023-12-29T07:42:35;3.17;;;3.00;;
11537;SDS011;50159;49.426;11.182;2023-12-29T07:45:02;4.53;;;4.23;;
11537;SDS011;50159;49.426;11.182;2023-12-29T07:47:29;4.03;;;3.73;;
11537;SDS011;50159;49.426;11.182;2023-12-29T07:49:57;4.23;;;3.87;;
11537;SDS011;50159;49.426;11.182;2023-12-29T07:52:24;6.60;;;4.03;;
11537;SDS011;50159;49.426;11.182;2023-12-29T07:54:51;4.17;;;3.87;;
11537;SDS011;50159;49.426;11.182;2023-12-29T07:57:18;4.03;;;3.73;;
11537;SDS011;50159;49.426;11.182;2023-12-29T07:59:45;3.90;;;3.60;;
11537;SDS011;50159;49.426;11.182;2023-12-29T08:02:12;4.90;;;4.43;;
11537;SDS011;50159;49.426;11.182;2023-12-29T08:04:39;5.87;;;4.23;;
11537;SDS011;50159;49.426;11.182;2023-12-29T08:07:06;5.33;;;4.70;;
11537;SDS011;50159;49.426;11.182;2023-12-29T08:09:32;5.73;;;5.23;;
11537;SDS011;50159;49.426;11.182;2023-12-29T08:11:59;4.87;;;4.47;;
11537;SDS011;50159;49.426;11.182;2023-12-29T08:14:26;5.40;;;4.50;;
11537;SDS011;50159;49.426;11.182;2023-12-29T08:16:54;4.53;;;4.13;;
11537;SDS011;50159;49.426;11.182;2023-12-29T08:19:23;5.00;;;4.60;;
11537;SDS011;50159;49.426;11.182;2023-12-29T08:21:50;4.33;;;4.03;;
11537;SDS011;50159;49.426;11.182;2023-12-29T08:24:17;4.10;;;3.80;;
11537;SDS011;50159;49.426;11.182;2023-12-29T08:26:46;4.50;;;4.10;;
11537;SDS011;50159;49.426;11.182;2023-12-29T08:29:14;4.50;;;4.20;;
11537;SDS011;50159;49.426;11.182;2023-12-29T08:31:42;4.07;;;3.77;;
11537;SDS011;50159;49.426;11.182;2023-12-29T08:34:10;3.73;;;3.43;;
11537;SDS011;50159;49.426;11.182;2023-12-29T08:36:37;7.57;;;3.67;;
11537;SDS011;50159;49.426;11.182;2023-12-29T08:39:04;3.90;;;3.60;;
11537;SDS011;50159;49.426;11.182;2023-12-29T08:41:31;4.20;;;3.80;;
11537;SDS011;50159;49.426;11.182;2023-12-29T08:43:58;3.67;;;3.47;;
11537;SDS011;50159;49.426;11.182;2023-12-29T08:46:25;3.60;;;3.40;;
11537;SDS011;50159;49.426;11.182;2023-12-29T08:48:52;3.80;;;3.60;;
11537;SDS011;50159;49.426;11.182;2023-12-29T08:51:20;3.43;;;3.17;;
11537;SDS011;50159;49.426;11.182;2023-12-29T08:53:47;3.90;;;3.60;;
11537;SDS011;50159;49.426;11.182;2023-12-29T08:56:14;3.40;;;3.20;;
11537;SDS011;50159;49.426;11.182;2023-12-29T08:58:40;3.80;;;3.50;;
11537;SDS011;50159;49.426;11.182;2023-12-29T09:01:08;3.47;;;3.23;;
11537;SDS011;50159;49.426;11.182;2023-12-29T09:03:35;3.20;;;3.00;;
11537;SDS011;50159;49.426;11.182;2023-12-29T09:06:02;18.70;;;13.40;;
11537;SDS011;50159;49.426;11.182;2023-12-29T09:08:30;5.67;;;5.17;;
11537;SDS011;50159;49.426;11.182;2023-12-29T09:10:57;5.30;;;4.80;;
11537;SDS011;50159;49.426;11.182;2023-12-29T09:13:24;4.57;;;4.27;;
11537;SDS011;50159;49.426;11.182;2023-12-29T09:15:53;4.07;;;3.87;;
11537;SDS011;50159;49.426;11.182;2023-12-29T09:18:21;3.63;;;3.43;;
11537;SDS011;50159;49.426;11.182;2023-12-29T09:20:48;3.33;;;3.03;;
11537;SDS011;50159;49.426;11.182;2023-12-29T09:23:15;3.47;;;3.20;;
11537;SDS011;50159;49.426;11.182;2023-12-29T09:25:42;2.70;;;2.60;;
11537;SDS011;50159;49.426;11.182;2023-12-29T09:28:10;4.03;;;3.73;;
11537;SDS011;50159;49.426;11.182;2023-12-29T09:30:37;2.77;;;2.67;;
11537;SDS011;50159;49.426;11.182;2023-12-29T09:33:04;2.90;;;2.80;;
11537;SDS011;50159;49.426;11.182;2023-12-29T09:35:31;2.87;;;2.67;;
11537;SDS011;50159;49.426;11.182;2023-12-29T09:38:01;2.93;;;2.83;;
11537;SDS011;50159;49.426;11.182;2023-12-29T09:40:28;3.33;;;3.13;;
11537;SDS011;50159;49.426;11.182;2023-12-29T09:42:55;3.57;;;3.37;;
11537;SDS011;50159;49.426;11.182;2023-12-29T09:45:25;3.87;;;3.50;;
11537;SDS011;50159;49.426;11.182;2023-12-29T09:47:53;3.10;;;2.90;;
11537;SDS011;50159;49.426;11.182;2023-12-29T09:50:24;4.70;;;3.97;;
11537;SDS011;50159;49.426;11.182;2023-12-29T09:52:53;3.90;;;3.60;;
11537;SDS011;50159;49.426;11.182;2023-12-29T09:55:21;4.80;;;3.80;;
11537;SDS011;50159;49.426;11.182;2023-12-29T09:57:48;3.43;;;3.20;;
11537;SDS011;50159;49.426;11.182;2023-12-29T10:00:15;3.70;;;3.47;;
11537;SDS011;50159;49.426;11.182;2023-12-29T10:02:44;3.60;;;3.30;;
11537;SDS011;50159;49.426;11.182;2023-12-29T10:05:11;3.60;;;3.40;;
11537;SDS011;50159;49.426;11.182;2023-12-29T10:07:38;3.90;;;3.60;;
11537;SDS011;50159;49.426;11.182;2023-12-29T10:10:08;3.60;;;3.33;;
11537;SDS011;50159;49.426;11.182;2023-12-29T10:12:43;3.90;;;3.63;;
11537;SDS011;50159;49.426;11.182;2023-12-29T10:15:17;3.60;;;3.30;;
11537;SDS011;50159;49.426;11.182;2023-12-29T10:20:56;3.73;;;3.53;;
11537;SDS011;50159;49.426;11.182;2023-12-29T10:23:42;3.97;;;3.73;;
11537;SDS011;50159;49.426;11.182;2023-12-29T10:26:16;3.70;;;3.50;;
11537;SDS011;50159;49.426;11.182;2023-12-29T10:28:46;3.93;;;3.63;;
11537;SDS011;50159;49.426;11.182;2023-12-29T10:31:14;4.87;;;4.20;;
11537;SDS011;50159;49.426;11.182;2023-12-29T10:33:42;4.27;;;3.93;;
11537;SDS011;50159;49.426;11.182;2023-12-29T10:36:09;4.00;;;3.73;;
11537;SDS011;50159;49.426;11.182;2023-12-29T10:38:38;4.53;;;4.13;;
11537;SDS011;50159;49.426;11.182;2023-12-29T10:41:15;4.33;;;4.03;;
11537;SDS011;50159;49.426;11.182;2023-12-29T10:43:44;4.07;;;3.77;;
11537;SDS011;50159;49.426;11.182;2023-12-29T10:46:13;5.80;;;4.00;;
11537;SDS011;50159;49.426;11.182;2023-12-29T10:48:41;4.60;;;4.20;;
11537;SDS011;50159;49.426;11.182;2023-12-29T10:51:08;3.97;;;3.77;;
11537;SDS011;50159;49.426;11.182;2023-12-29T10:53:36;4.27;;;3.77;;
11537;SDS011;50159;49.426;11.182;2023-12-29T10:56:16;5.30;;;4.43;;
11537;SDS011;50159;49.426;11.182;2023-12-29T10:58:56;4.50;;;4.17;;
11537;SDS011;50159;49.426;11.182;2023-12-29T11:01:33;4.37;;;4.07;;
11537;SDS011;50159;49.426;11.182;2023-12-29T11:04:05;4.20;;;3.90;;
11537;SDS011;50159;49.426;11.182;2023-12-29T11:06:43;4.17;;;3.93;;
11537;SDS011;50159;49.426;11.182;2023-12-29T11:09:17;3.43;;;3.23;;
11537;SDS011;50159;49.426;11.182;2023-12-29T11:11:59;5.47;;;4.40;;
11537;SDS011;50159;49.426;11.182;2023-12-29T11:14:28;4.73;;;4.33;;
11537;SDS011;50159;49.426;11.182;2023-12-29T11:16:56;4.63;;;4.23;;
11537;SDS011;50159;49.426;11.182;2023-12-29T11:19:27;5.00;;;4.57;;
11537;SDS011;50159;49.426;11.182;2023-12-29T11:21:55;6.43;;;4.40;;
11537;SDS011;50159;49.426;11.182;2023-12-29T11:24:23;4.10;;;3.80;;
11537;SDS011;50159;49.426;11.182;2023-12-29T11:27:03;3.93;;;3.67;;
11537;SDS011;50159;49.426;11.182;2023-12-29T11:29:34;5.47;;;4.07;;
11537;SDS011;50159;49.426;11.182;2023-12-29T11:32:04;5.83;;;4.20;;
11537;SDS011;50159;49.426;11.182;2023-12-29T11:34:42;3.50;;;3.40;;
11537;SDS011;50159;49.426;11.182;2023-12-29T11:40:11;4.20;;;3.97;;
11537;SDS011;50159;49.426;11.182;2023-12-29T11:42:54;4.23;;;3.93;;
11537;SDS011;50159;49.426;11.182;2023-12-29T11:45:30;3.70;;;3.50;;
11537;SDS011;50159;49.426;11.182;2023-12-29T11:48:03;4.00;;;3.60;;
11537;SDS011;50159;49.426;11.182;2023-12-29T11:50:32;4.03;;;3.67;;
11537;SDS011;50159;49.426;11.182;2023-12-29T11:53:04;4.07;;;3.80;;
11537;SDS011;50159;49.426;11.182;2023-12-29T11:55:35;4.10;;;3.80;;
11537;SDS011;50159;49.426;11.182;2023-12-29T11:58:04;3.80;;;3.50;;
11537;SDS011;50159;49.426;11.182;2023-12-29T12:00:51;5.47;;;3.33;;
11537;SDS011;50159;49.426;11.182;2023-12-29T12:03:25;3.37;;;3.17;;
11537;SDS011;50159;49.426;11.182;2023-12-29T12:05:58;4.50;;;4.10;;
11537;SDS011;50159;49.426;11.182;2023-12-29T12:08:33;3.93;;;3.43;;
11537;SDS011;50159;49.426;11.182;2023-12-29T12:13:56;3.27;;;2.97;;
11537;SDS011;50159;49.426;11.182;2023-12-29T12:16:46;3.00;;;2.80;;
11537;SDS011;50159;49.426;11.182;2023-12-29T12:19:15;3.43;;;2.77;;
11537;SDS011;50159;49.426;11.182;2023-12-29T12:21:45;3.80;;;2.67;;
11537;SDS011;50159;49.426;11.182;2023-12-29T12:24:15;3.10;;;2.90;;
11537;SDS011;50159;49.426;11.182;2023-12-29T12:26:45;3.07;;;2.70;;
11537;SDS011;50159;49.426;11.182;2023-12-29T12:29:13;5.57;;;2.97;;
11537;SDS011;50159;49.426;11.182;2023-12-29T12:31:53;2.97;;;2.87;;
11537;SDS011;50159;49.426;11.182;2023-12-29T12:34:23;2.77;;;2.57;;
11537;SDS011;50159;49.426;11.182;2023-12-29T12:36:52;5.97;;;2.50;;
11537;SDS011;50159;49.426;11.182;2023-12-29T12:39:23;2.37;;;2.27;;
11537;SDS011;50159;49.426;11.182;2023-12-29T12:41:50;2.00;;;1.90;;
11537;SDS011;50159;49.426;11.182;2023-12-29T12:44:16;2.70;;;1.80;;
11537;SDS011;50159;49.426;11.182;2023-12-29T12:46:48;1.60;;;1.60;;
11537;SDS011;50159;49.426;11.182;2023-12-29T12:49:21;6.40;;;1.80;;
11537;SDS011;50159;49.426;11.182;2023-12-29T12:51:49;1.43;;;1.43;;
11537;SDS011;50159;49.426;11.182;2023-12-29T12:54:17;1.40;;;1.40;;
11537;SDS011;50159;49.426;11.182;2023-12-29T12:56:48;1.70;;;1.60;;
11537;SDS011;50159;49.426;11.182;2023-12-29T12:59:16;1.63;;;1.57;;
11537;SDS011;50159;49.426;11.182;2023-12-29T13:01:43;1.67;;;1.67;;
11537;SDS011;50159;49.426;11.182;2023-12-29T13:04:11;2.23;;;2.07;;
11537;SDS011;50159;49.426;11.182;2023-12-29T13:06:39;2.50;;;2.30;;
11537;SDS011;50159;49.426;11.182;2023-12-29T13:09:17;2.30;;;2.20;;
11537;SDS011;50159;49.426;11.182;2023-12-29T13:11:46;1.73;;;1.67;;
11537;SDS011;50159;49.426;11.182;2023-12-29T13:14:22;1.60;;;1.60;;
11537;SDS011;50159;49.426;11.182;2023-12-29T13:16:49;2.00;;;1.90;;
11537;SDS011;50159;49.426;11.182;2023-12-29T13:19:17;1.30;;;1.30;;
11537;SDS011;50159;49.426;11.182;2023-12-29T13:21:51;2.27;;;1.87;;
11537;SDS011;50159;49.426;11.182;2023-12-29T13:24:22;1.70;;;1.60;;
11537;SDS011;50159;49.426;11.182;2023-12-29T13:26:50;1.40;;;1.40;;
11537;SDS011;50159;49.426;11.182;2023-12-29T13:29:24;1.37;;;1.37;;
11537;SDS011;50159;49.426;11.182;2023-12-29T13:31:53;1.60;;;1.60;;
11537;SDS011;50159;49.426;11.182;2023-12-29T13:37:44;1.30;;;1.30;;
11537;SDS011;50159;49.426;11.182;2023-12-29T13:40:56;3.20;;;1.50;;
11537;SDS011;50159;49.426;11.182;2023-12-29T13:43:30;1.20;;;1.20;;
11537;SDS011;50159;49.426;11.182;2023-12-29T13:46:01;1.30;;;1.20;;
11537;SDS011;50159;49.426;11.182;2023-12-29T13:48:30;1.50;;;1.20;;
11537;SDS011;50159;49.426;11.182;2023-12-29T13:50:59;1.40;;;1.40;;
11537;SDS011;50159;49.426;11.182;2023-12-29T13:53:26;1.40;;;1.40;;
11537;SDS011;50159;49.426;11.182;2023-12-29T13:55:53;1.40;;;1.30;;
11537;SDS011;50159;49.426;11.182;2023-12-29T13:58:20;1.33;;;1.30;;
11537;SDS011;50159;49.426;11.182;2023-12-29T14:00:47;1.70;;;1.40;;
11537;SDS011;50159;49.426;11.182;2023-12-29T14:03:30;3.50;;;1.33;;
11537;SDS011;50159;49.426;11.182;2023-12-29T14:06:04;1.20;;;1.20;;
11537;SDS011;50159;49.426;11.182;2023-12-29T14:08:40;1.60;;;1.50;;
11537;SDS011;50159;49.426;11.182;2023-12-29T14:11:12;1.47;;;1.47;;
11537;SDS011;50159;49.426;11.182;2023-12-29T14:13:42;1.47;;;1.47;;
11537;SDS011;50159;49.426;11.182;2023-12-29T14:16:11;1.70;;;1.60;;
11537;SDS011;50159;49.426;11.182;2023-12-29T14:18:47;1.60;;;1.50;;
11537;SDS011;50159;49.426;11.182;2023-12-29T14:21:23;1.50;;;1.50;;
11537;SDS011;50159;49.426;11.182;2023-12-29T14:24:13;2.03;;;1.93;;
11537;SDS011;50159;49.426;11.182;2023-12-29T14:26:42;2.30;;;1.63;;
11537;SDS011;50159;49.426;11.182;2023-12-29T14:29:22;1.87;;;1.80;;
11537;SDS011;50159;49.426;11.182;2023-12-29T14:31:49;2.20;;;1.70;;
11537;SDS011;50159;49.426;11.182;2023-12-29T14:34:18;1.83;;;1.77;;
11537;SDS011;50159;49.426;11.182;2023-12-29T14:36:46;2.00;;;1.90;;
11537;SDS011;50159;49.426;11.182;2023-12-29T14:39:12;2.07;;;1.97;;
11537;SDS011;50159;49.426;11.182;2023-12-29T14:41:41;2.83;;;2.50;;
11537;SDS011;50159;49.426;11.182;2023-12-29T14:44:09;2.57;;;2.27;;
11537;SDS011;50159;49.426;11.182;2023-12-29T14:46:36;2.53;;;2.43;;
11537;SDS011;50159;49.426;11.182;2023-12-29T14:49:04;3.20;;;2.87;;
11537;SDS011;50159;49.426;11.182;2023-12-29T14:51:32;2.67;;;2.50;;
11537;SDS011;50159;49.426;11.182;2023-12-29T14:53:58;2.53;;;2.40;;
11537;SDS011;50159;49.426;11.182;2023-12-29T14:56:25;2.30;;;2.10;;